createdAt,value
2022-08-26T00:00:08.863Z,4.90
2022-08-26T00:03:00.909Z,5.00
2022-08-26T00:05:29.214Z,4.60
2022-08-26T00:07:57.610Z,5.60
2022-08-26T00:10:25.984Z,5.40
2022-08-26T00:12:55.168Z,4.80
2022-08-26T00:15:24.934Z,5.00
2022-08-26T00:17:53.935Z,4.40
2022-08-26T00:20:25.943Z,4.50
2022-08-26T00:22:55.259Z,4.40
2022-08-26T00:25:24.098Z,4.20
2022-08-26T00:27:52.850Z,3.90
2022-08-26T00:30:26.580Z,3.60
2022-08-26T00:32:55.903Z,3.90
2022-08-26T00:35:24.990Z,3.70
2022-08-26T00:37:57.306Z,4.10
2022-08-26T00:40:33.182Z,4.10
2022-08-26T00:43:02.572Z,4.00
2022-08-26T00:45:48.772Z,4.40
2022-08-26T00:48:21.441Z,4.50
2022-08-26T00:51:01.883Z,4.30
2022-08-26T00:53:34.444Z,4.60
2022-08-26T00:56:31.806Z,3.90
2022-08-26T00:59:06.294Z,4.50
2022-08-26T01:01:34.834Z,4.00
2022-08-26T01:04:03.426Z,4.20
2022-08-26T01:06:32.016Z,4.30
2022-08-26T01:09:00.499Z,4.60
2022-08-26T01:11:28.596Z,4.30
2022-08-26T01:14:00.534Z,4.20
2022-08-26T01:16:30.902Z,4.20
2022-08-26T01:19:06.856Z,4.20
2022-08-26T01:21:43.922Z,4.40
2022-08-26T01:24:13.978Z,4.60
2022-08-26T01:26:44.863Z,4.50
2022-08-26T01:29:19.221Z,4.40
2022-08-26T01:31:55.491Z,3.90
2022-08-26T01:34:25.426Z,4.40
2022-08-26T01:37:07.117Z,4.60
2022-08-26T01:39:36.881Z,3.90
2022-08-26T01:42:10.407Z,4.40
2022-08-26T01:44:46.488Z,4.60
2022-08-26T01:47:17.962Z,4.20
2022-08-26T01:49:50.810Z,3.90
2022-08-26T01:52:24.016Z,4.00
2022-08-26T01:54:57.705Z,4.50
2022-08-26T01:57:26.530Z,3.80
2022-08-26T01:59:58.562Z,3.90
2022-08-26T02:02:27.303Z,3.80
2022-08-26T02:05:02.192Z,4.40
2022-08-26T02:07:31.950Z,4.70
2022-08-26T02:10:01.310Z,4.60
2022-08-26T02:12:31.143Z,4.30
2022-08-26T02:15:02.262Z,4.50
2022-08-26T02:17:40.009Z,4.40
2022-08-26T02:20:13.352Z,4.60
2022-08-26T02:22:45.195Z,4.90
2022-08-26T02:25:29.510Z,4.40
2022-08-26T02:27:57.848Z,4.10
2022-08-26T02:30:29.621Z,4.40
2022-08-26T02:33:04.005Z,4.60
2022-08-26T02:35:34.044Z,3.60
2022-08-26T02:38:11.090Z,3.80
2022-08-26T02:40:41.435Z,4.00
2022-08-26T02:43:12.452Z,3.70
2022-08-26T02:45:41.408Z,4.10
2022-08-26T02:48:15.479Z,4.70
2022-08-26T02:50:44.539Z,4.50
2022-08-26T02:53:13.554Z,4.40
2022-08-26T02:55:42.375Z,4.10
2022-08-26T02:58:11.503Z,4.20
2022-08-26T03:00:53.245Z,4.20
2022-08-26T03:03:23.601Z,4.30
2022-08-26T03:05:53.270Z,4.20
2022-08-26T03:08:22.436Z,3.80
2022-08-26T03:10:51.039Z,4.30
2022-08-26T03:13:19.256Z,4.00
2022-08-26T03:15:47.676Z,4.50
2022-08-26T03:18:16.449Z,4.20
2022-08-26T03:20:45.620Z,3.90
2022-08-26T03:23:13.717Z,4.10
2022-08-26T03:25:42.409Z,4.30
2022-08-26T03:28:10.785Z,4.90
2022-08-26T03:30:44.873Z,4.90
2022-08-26T03:33:14.709Z,4.80
2022-08-26T03:35:45.237Z,5.10
2022-08-26T03:38:13.729Z,5.00
2022-08-26T03:40:43.782Z,5.00
2022-08-26T03:43:12.753Z,4.80
2022-08-26T03:45:41.672Z,5.10
2022-08-26T03:48:11.590Z,4.80
2022-08-26T03:50:40.711Z,5.00
2022-08-26T03:53:13.233Z,4.70
2022-08-26T03:55:42.417Z,5.30
2022-08-26T03:58:11.576Z,5.00
2022-08-26T04:00:39.984Z,5.70
2022-08-26T04:03:09.950Z,5.60
2022-08-26T04:05:38.697Z,5.10
2022-08-26T04:08:06.964Z,4.30
2022-08-26T04:10:38.520Z,5.10
2022-08-26T04:13:06.627Z,4.50
2022-08-26T04:15:35.049Z,4.90
2022-08-26T04:18:03.287Z,5.10
2022-08-26T04:20:32.223Z,4.70
2022-08-26T04:23:00.286Z,5.10
2022-08-26T04:25:28.359Z,5.40
2022-08-26T04:27:56.908Z,5.60
2022-08-26T04:30:25.736Z,4.90
2022-08-26T04:32:54.623Z,4.30
2022-08-26T04:35:25.662Z,4.80
2022-08-26T04:37:54.514Z,4.10
2022-08-26T04:40:23.938Z,4.70
2022-08-26T04:42:54.591Z,4.20
2022-08-26T04:45:23.481Z,4.50
2022-08-26T04:47:59.256Z,5.30
2022-08-26T04:50:27.444Z,4.90
2022-08-26T04:52:55.763Z,5.10
2022-08-26T04:55:38.184Z,5.60
2022-08-26T04:58:10.436Z,4.80
2022-08-26T05:00:38.945Z,5.10
2022-08-26T05:03:07.672Z,5.20
2022-08-26T05:05:41.305Z,5.00
2022-08-26T05:08:11.420Z,5.50
2022-08-26T05:10:46.216Z,5.70
2022-08-26T05:13:18.207Z,5.80
2022-08-26T05:15:49.440Z,6.20
2022-08-26T05:18:21.339Z,5.50
2022-08-26T05:20:54.881Z,5.90
2022-08-26T05:23:24.667Z,5.50
2022-08-26T05:25:59.234Z,5.50
2022-08-26T05:28:29.987Z,5.70
2022-08-26T05:30:58.268Z,5.10
2022-08-26T05:33:26.400Z,5.10
2022-08-26T05:35:55.164Z,5.00
2022-08-26T05:38:23.441Z,6.00
2022-08-26T05:40:53.213Z,5.00
2022-08-26T05:43:21.395Z,5.90
2022-08-26T05:45:50.630Z,5.90
2022-08-26T05:48:22.846Z,6.00
2022-08-26T05:50:53.426Z,5.40
2022-08-26T05:53:23.915Z,5.50
2022-08-26T05:55:56.994Z,5.40
2022-08-26T05:58:27.358Z,5.10
2022-08-26T06:01:01.743Z,6.00
2022-08-26T06:03:34.233Z,5.10
2022-08-26T06:06:33.077Z,5.30
2022-08-26T06:09:05.067Z,4.70
2022-08-26T06:11:34.012Z,5.20
2022-08-26T06:14:06.594Z,5.10
2022-08-26T06:16:38.722Z,4.80
2022-08-26T06:19:11.633Z,5.20
2022-08-26T06:21:42.217Z,5.00
2022-08-26T06:24:32.607Z,5.40
2022-08-26T06:27:04.806Z,5.00
2022-08-26T06:29:36.192Z,5.10
2022-08-26T06:32:06.868Z,5.30
2022-08-26T06:34:34.902Z,5.30
2022-08-26T06:37:03.802Z,5.40
2022-08-26T06:39:32.125Z,5.30
2022-08-26T06:42:02.636Z,5.10
2022-08-26T06:44:34.754Z,5.50
2022-08-26T06:47:02.813Z,5.20
2022-08-26T06:49:30.917Z,5.20
2022-08-26T06:51:59.062Z,6.20
2022-08-26T06:54:31.628Z,5.50
2022-08-26T06:57:01.207Z,5.20
2022-08-26T06:59:31.273Z,4.90
2022-08-26T07:02:00.034Z,5.60
2022-08-26T07:04:29.058Z,5.10
2022-08-26T07:06:57.055Z,4.90
2022-08-26T07:09:28.361Z,5.50
2022-08-26T07:11:56.857Z,5.20
2022-08-26T07:14:26.442Z,4.30
2022-08-26T07:16:55.110Z,5.10
2022-08-26T07:19:30.545Z,5.00
2022-08-26T07:22:03.629Z,5.10
2022-08-26T07:24:37.386Z,5.40
2022-08-26T07:27:08.554Z,5.60
2022-08-26T07:29:39.542Z,5.30
2022-08-26T07:32:09.988Z,5.40
2022-08-26T07:34:38.993Z,5.80
2022-08-26T07:37:08.743Z,5.80
2022-08-26T07:39:37.370Z,5.70
2022-08-26T07:42:07.382Z,4.70
2022-08-26T07:44:37.812Z,5.30
2022-08-26T07:47:10.251Z,5.10
2022-08-26T07:49:55.884Z,4.60
2022-08-26T07:52:27.316Z,5.20
2022-08-26T07:55:01.136Z,5.10
2022-08-26T07:57:30.491Z,5.10
2022-08-26T07:59:59.281Z,4.50
2022-08-26T08:02:29.367Z,4.90
2022-08-26T08:04:59.883Z,5.20
2022-08-26T08:07:45.062Z,4.30
2022-08-26T08:10:20.984Z,4.20
2022-08-26T08:12:50.726Z,4.20
2022-08-26T08:15:22.806Z,4.60
2022-08-26T08:17:51.678Z,4.30
2022-08-26T08:20:21.378Z,3.90
2022-08-26T08:22:52.949Z,3.90
2022-08-26T08:25:23.070Z,4.50
2022-08-26T08:27:51.034Z,4.20
2022-08-26T08:30:23.128Z,3.90
2022-08-26T08:32:52.709Z,4.10
2022-08-26T08:35:23.012Z,4.10
2022-08-26T08:37:54.629Z,4.40
2022-08-26T08:40:26.217Z,4.20
2022-08-26T08:43:04.094Z,4.30
2022-08-26T08:45:38.448Z,4.40
2022-08-26T08:48:28.130Z,4.20
2022-08-26T08:51:14.122Z,3.70
2022-08-26T08:53:46.027Z,4.30
2022-08-26T08:56:26.745Z,4.00
2022-08-26T08:59:20.538Z,5.10
2022-08-26T09:01:55.664Z,3.60
2022-08-26T09:04:23.747Z,3.90
2022-08-26T09:09:46.174Z,4.30
2022-08-26T09:12:21.515Z,4.50
2022-08-26T09:15:20.649Z,4.20
2022-08-26T09:18:31.831Z,3.60
2022-08-26T09:21:09.494Z,3.90
2022-08-26T09:23:41.795Z,4.30
2022-08-26T09:26:40.025Z,4.00
2022-08-26T09:29:42.765Z,3.60
2022-08-26T09:32:24.153Z,3.30
2022-08-26T09:35:06.259Z,4.10
2022-08-26T09:40:20.328Z,3.30
2022-08-26T09:43:05.580Z,3.30
2022-08-26T09:45:36.297Z,3.20
2022-08-26T09:48:05.016Z,2.80
2022-08-26T09:50:37.298Z,3.30
2022-08-26T09:53:09.711Z,2.70
2022-08-26T09:55:47.706Z,2.80
2022-08-26T09:58:37.976Z,3.00
2022-08-26T10:01:09.144Z,3.00
2022-08-26T10:03:39.818Z,2.60
2022-08-26T10:06:24.383Z,2.60
2022-08-26T10:08:56.326Z,2.60
2022-08-26T10:11:43.054Z,2.60
2022-08-26T10:14:48.856Z,2.50
2022-08-26T10:17:36.511Z,2.40
2022-08-26T10:20:27.529Z,2.60
2022-08-26T10:23:23.402Z,2.90
2022-08-26T10:26:20.936Z,2.60
2022-08-26T10:29:01.566Z,2.50
2022-08-26T10:31:40.980Z,2.50
2022-08-26T10:34:12.587Z,2.40
2022-08-26T10:37:13.662Z,2.60
2022-08-26T10:39:51.867Z,2.50
2022-08-26T10:42:39.027Z,2.80
2022-08-26T10:45:19.866Z,2.70
2022-08-26T10:48:00.306Z,2.80
2022-08-26T10:50:36.238Z,3.00
2022-08-26T10:53:51.427Z,2.60
2022-08-26T10:56:41.524Z,2.20
2022-08-26T10:59:22.616Z,2.40
2022-08-26T11:02:07.215Z,2.70
2022-08-26T11:04:56.865Z,2.50
2022-08-26T11:07:39.369Z,2.60
2022-08-26T11:10:09.172Z,2.70
2022-08-26T11:12:37.264Z,2.20
2022-08-26T11:15:07.000Z,2.30
2022-08-26T11:17:47.096Z,2.60
2022-08-26T11:20:30.323Z,2.70
2022-08-26T11:23:13.348Z,2.80
2022-08-26T11:25:57.057Z,2.40
2022-08-26T11:28:37.240Z,2.70
2022-08-26T11:31:10.204Z,2.50
2022-08-26T11:33:44.258Z,3.00
2022-08-26T11:36:37.766Z,2.50
2022-08-26T11:39:19.395Z,2.40
2022-08-26T11:41:52.609Z,2.10
2022-08-26T11:44:25.271Z,2.90
2022-08-26T11:47:00.956Z,2.70
2022-08-26T11:49:33.298Z,2.30
2022-08-26T11:52:12.140Z,3.00
2022-08-26T11:54:40.184Z,3.10
2022-08-26T11:57:12.594Z,2.30
2022-08-26T11:59:42.451Z,2.10
2022-08-26T12:02:17.958Z,2.70
2022-08-26T12:04:49.784Z,2.50
2022-08-26T12:07:24.394Z,3.40
2022-08-26T12:10:02.256Z,2.30
2022-08-26T12:12:35.171Z,2.50
2022-08-26T12:15:15.287Z,3.10
2022-08-26T12:17:45.127Z,2.50
2022-08-26T12:20:48.992Z,2.80
2022-08-26T12:23:28.110Z,3.60
2022-08-26T12:26:10.525Z,2.60
2022-08-26T12:28:47.999Z,5.00
2022-08-26T12:31:30.073Z,3.00
2022-08-26T12:34:01.256Z,2.60
2022-08-26T12:36:54.808Z,3.20
2022-08-26T12:39:35.684Z,3.80
2022-08-26T12:42:08.014Z,4.20
2022-08-26T12:44:58.596Z,3.70
2022-08-26T12:47:39.048Z,4.40
2022-08-26T12:50:22.719Z,3.80
2022-08-26T12:53:11.643Z,3.70
2022-08-26T12:55:47.672Z,3.40
2022-08-26T12:58:15.563Z,4.20
2022-08-26T13:00:49.431Z,3.60
2022-08-26T13:03:38.726Z,2.70
2022-08-26T13:06:15.966Z,2.40
2022-08-26T13:09:12.238Z,2.50
2022-08-26T13:11:40.233Z,2.10
2022-08-26T13:14:23.633Z,2.30
2022-08-26T13:16:53.553Z,2.00
2022-08-26T13:19:24.165Z,3.00
2022-08-26T13:22:00.687Z,2.30
2022-08-26T13:24:41.992Z,2.60
2022-08-26T13:27:15.129Z,2.20
2022-08-26T13:29:43.446Z,2.40
2022-08-26T13:32:11.703Z,2.40
2022-08-26T13:34:40.387Z,3.10
2022-08-26T13:37:08.320Z,2.30
2022-08-26T13:39:36.945Z,2.20
2022-08-26T13:42:05.235Z,3.80
2022-08-26T13:44:33.677Z,4.70
2022-08-26T13:47:01.749Z,2.30
2022-08-26T13:49:29.782Z,2.60
2022-08-26T13:51:57.756Z,2.60
2022-08-26T13:54:26.580Z,2.20
2022-08-26T13:56:54.572Z,5.50
2022-08-26T13:59:22.620Z,3.10
2022-08-26T14:01:50.796Z,2.60
2022-08-26T14:04:23.331Z,2.70
2022-08-26T14:06:55.772Z,2.70
2022-08-26T14:09:23.817Z,2.20
2022-08-26T14:11:54.431Z,3.80
2022-08-26T14:14:23.138Z,2.40
2022-08-26T14:16:58.909Z,5.90
2022-08-26T14:19:30.359Z,2.20
2022-08-26T14:22:01.136Z,5.40
2022-08-26T14:24:29.962Z,2.70
2022-08-26T14:26:58.862Z,2.10
2022-08-26T14:29:27.027Z,2.90
2022-08-26T14:31:56.632Z,2.20
2022-08-26T14:34:25.530Z,2.20
2022-08-26T14:36:53.620Z,2.20
2022-08-26T14:39:22.414Z,4.70
2022-08-26T14:41:54.987Z,2.90
2022-08-26T14:44:31.505Z,3.00
2022-08-26T14:47:01.837Z,3.00
2022-08-26T14:49:31.780Z,2.90
2022-08-26T14:52:00.460Z,2.60
2022-08-26T14:54:29.761Z,3.50
2022-08-26T14:57:01.932Z,7.90
2022-08-26T14:59:32.972Z,2.70
2022-08-26T15:02:01.428Z,3.20
2022-08-26T15:04:29.680Z,2.90
2022-08-26T15:06:59.845Z,3.10
2022-08-26T15:09:30.498Z,2.60
2022-08-26T15:11:59.266Z,2.90
2022-08-26T15:14:32.706Z,3.50
2022-08-26T15:17:01.352Z,2.90
2022-08-26T15:19:29.731Z,3.10
2022-08-26T15:21:57.906Z,3.10
2022-08-26T15:24:28.876Z,3.10
2022-08-26T15:26:57.733Z,2.50
2022-08-26T15:29:26.013Z,3.10
2022-08-26T15:31:55.312Z,5.40
2022-08-26T15:34:26.764Z,2.90
2022-08-26T15:36:55.445Z,2.80
2022-08-26T15:39:24.155Z,3.00
2022-08-26T15:41:52.412Z,2.90
2022-08-26T15:44:20.711Z,2.80
2022-08-26T15:46:50.266Z,2.90
2022-08-26T15:49:18.846Z,2.70
2022-08-26T15:51:51.540Z,3.20
2022-08-26T15:54:22.186Z,2.80
2022-08-26T15:56:52.435Z,3.10
2022-08-26T15:59:22.572Z,3.10
2022-08-26T16:01:52.478Z,3.50
2022-08-26T16:04:21.232Z,2.90
2022-08-26T16:06:51.667Z,3.00
2022-08-26T16:09:27.104Z,3.30
2022-08-26T16:11:59.066Z,3.10
2022-08-26T16:14:27.348Z,3.30
2022-08-26T16:16:56.753Z,2.90
2022-08-26T16:19:25.126Z,3.60
2022-08-26T16:21:53.509Z,2.60
2022-08-26T16:24:27.167Z,2.80
2022-08-26T16:26:58.455Z,3.30
2022-08-26T16:29:27.196Z,3.30
2022-08-26T16:31:55.517Z,2.80
2022-08-26T16:34:24.516Z,3.40
2022-08-26T16:36:53.509Z,3.00
2022-08-26T16:39:21.831Z,3.00
2022-08-26T16:41:50.469Z,3.80
2022-08-26T16:44:19.357Z,3.40
2022-08-26T16:46:47.686Z,3.40
2022-08-26T16:49:15.833Z,3.60
2022-08-26T16:51:43.861Z,3.70
2022-08-26T16:54:12.058Z,3.70
2022-08-26T16:56:40.443Z,3.60
2022-08-26T16:59:11.707Z,4.80
2022-08-26T17:01:40.126Z,4.10
2022-08-26T17:04:08.856Z,3.80
2022-08-26T17:06:37.159Z,3.50
2022-08-26T17:09:05.923Z,3.90
2022-08-26T17:11:34.644Z,3.60
2022-08-26T17:14:03.044Z,3.40
2022-08-26T17:16:31.817Z,3.70
2022-08-26T17:19:01.071Z,4.20
2022-08-26T17:21:29.344Z,4.20
2022-08-26T17:23:57.626Z,3.70
2022-08-26T17:26:27.432Z,4.50
2022-08-26T17:28:56.026Z,4.10
2022-08-26T17:31:24.242Z,4.40
2022-08-26T17:33:54.262Z,4.50
2022-08-26T17:36:27.993Z,4.50
2022-08-26T17:38:58.135Z,4.00
2022-08-26T17:41:26.862Z,4.10
2022-08-26T17:43:54.958Z,4.30
2022-08-26T17:46:24.047Z,4.60
2022-08-26T17:48:52.574Z,4.10
2022-08-26T17:51:21.027Z,4.00
2022-08-26T17:53:50.539Z,4.90
2022-08-26T17:56:24.186Z,4.10
2022-08-26T17:59:03.463Z,4.90
2022-08-26T18:01:33.070Z,4.40
2022-08-26T18:04:01.777Z,4.20
2022-08-26T18:06:30.933Z,4.30
2022-08-26T18:09:00.908Z,4.50
2022-08-26T18:11:30.337Z,4.30
2022-08-26T18:13:59.987Z,4.50
2022-08-26T18:16:32.085Z,4.60
2022-08-26T18:19:00.671Z,5.00
2022-08-26T18:21:28.940Z,4.60
2022-08-26T18:23:57.377Z,4.90
2022-08-26T18:26:32.767Z,5.00
2022-08-26T18:29:02.064Z,5.00
2022-08-26T18:31:31.269Z,4.20
2022-08-26T18:34:01.381Z,5.40
2022-08-26T18:36:34.063Z,4.60
2022-08-26T18:39:04.497Z,5.30
2022-08-26T18:41:38.620Z,5.10
2022-08-26T18:44:09.474Z,5.30
2022-08-26T18:46:39.971Z,5.20
2022-08-26T18:49:08.761Z,5.30
2022-08-26T18:51:38.166Z,4.80
2022-08-26T18:54:07.954Z,5.70
2022-08-26T18:56:37.583Z,5.40
2022-08-26T18:59:07.776Z,5.60
2022-08-26T19:01:37.433Z,5.80
2022-08-26T19:04:07.244Z,5.40
2022-08-26T19:06:36.423Z,5.80
2022-08-26T19:09:08.964Z,5.70
2022-08-26T19:11:42.903Z,6.10
2022-08-26T19:14:14.447Z,6.30
2022-08-26T19:16:45.664Z,5.40
2022-08-26T19:19:14.142Z,5.00
2022-08-26T19:21:42.513Z,5.10
2022-08-26T19:24:15.791Z,4.90
2022-08-26T19:26:46.572Z,4.80
2022-08-26T19:29:19.087Z,5.10
2022-08-26T19:31:47.945Z,5.70
2022-08-26T19:34:20.694Z,5.60
2022-08-26T19:36:49.800Z,6.20
2022-08-26T19:39:18.029Z,5.50
2022-08-26T19:41:46.120Z,5.80
2022-08-26T19:44:38.328Z,5.60
2022-08-26T19:47:09.814Z,5.70
2022-08-26T19:49:38.460Z,6.40
2022-08-26T19:52:06.599Z,6.50
2022-08-26T19:54:35.455Z,6.20
2022-08-26T19:57:04.007Z,5.60
2022-08-26T19:59:33.311Z,5.70
2022-08-26T20:02:02.037Z,6.00
2022-08-26T20:04:32.114Z,6.00
2022-08-26T20:07:01.828Z,5.60
2022-08-26T20:09:32.736Z,5.50
2022-08-26T20:12:02.517Z,5.30
2022-08-26T20:14:31.164Z,5.40
2022-08-26T20:16:59.490Z,5.20
2022-08-26T20:19:46.353Z,6.00
2022-08-26T20:22:14.838Z,5.60
2022-08-26T20:24:43.024Z,5.70
2022-08-26T20:27:11.442Z,5.90
2022-08-26T20:29:40.995Z,6.00
2022-08-26T20:32:09.933Z,6.00
2022-08-26T20:34:39.922Z,5.80
2022-08-26T20:37:08.687Z,5.90
2022-08-26T20:39:36.869Z,5.80
2022-08-26T20:42:06.918Z,6.00
2022-08-26T20:44:54.865Z,5.70
2022-08-26T20:47:23.507Z,5.20
2022-08-26T20:49:52.337Z,5.10
2022-08-26T20:52:21.182Z,5.70
2022-08-26T20:54:49.363Z,5.00
2022-08-26T20:57:17.642Z,5.40
2022-08-26T20:59:45.809Z,5.10
2022-08-26T21:02:14.089Z,4.70
2022-08-26T21:04:42.317Z,5.40
2022-08-26T21:07:10.534Z,4.60
2022-08-26T21:09:38.711Z,4.70
2022-08-26T21:12:07.298Z,4.50
2022-08-26T21:14:35.365Z,4.70
2022-08-26T21:17:04.460Z,4.70
2022-08-26T21:19:32.395Z,4.80
2022-08-26T21:22:00.506Z,4.80
2022-08-26T21:24:28.575Z,5.10
2022-08-26T21:26:57.059Z,4.80
2022-08-26T21:29:25.544Z,4.90
2022-08-26T21:31:53.564Z,4.60
2022-08-26T21:34:21.986Z,5.20
2022-08-26T21:36:50.366Z,4.60
2022-08-26T21:39:18.717Z,4.80
2022-08-26T21:41:47.379Z,4.70
2022-08-26T21:44:17.345Z,5.20
2022-08-26T21:46:46.560Z,4.70
2022-08-26T21:49:16.171Z,5.10
2022-08-26T21:51:47.436Z,5.20
2022-08-26T21:54:16.294Z,5.20
2022-08-26T21:56:47.111Z,5.20
2022-08-26T21:59:18.182Z,5.60
2022-08-26T22:01:47.201Z,5.70
2022-08-26T22:04:16.160Z,5.40
2022-08-26T22:06:50.575Z,5.30
2022-08-26T22:09:23.868Z,5.60
2022-08-26T22:11:53.682Z,4.90
2022-08-26T22:14:30.660Z,4.80
2022-08-26T22:16:59.978Z,4.70
2022-08-26T22:19:29.999Z,4.70
2022-08-26T22:21:59.080Z,4.60
2022-08-26T22:24:27.970Z,5.30
2022-08-26T22:26:56.991Z,4.40
2022-08-26T22:29:25.855Z,4.50
2022-08-26T22:31:54.045Z,4.60
2022-08-26T22:34:23.426Z,4.40
2022-08-26T22:36:51.707Z,4.80
2022-08-26T22:39:23.331Z,4.70
2022-08-26T22:41:53.381Z,4.40
2022-08-26T22:44:22.483Z,5.40
2022-08-26T22:46:54.440Z,5.20
2022-08-26T22:49:23.603Z,5.20
2022-08-26T22:51:51.734Z,5.10
2022-08-26T22:54:20.298Z,4.70
2022-08-26T22:56:48.733Z,4.50
2022-08-26T22:59:17.149Z,4.90
2022-08-26T23:01:46.933Z,4.60
2022-08-26T23:04:15.244Z,4.80
2022-08-26T23:06:47.598Z,5.00
2022-08-26T23:09:18.531Z,5.40
2022-08-26T23:11:48.703Z,5.00
2022-08-26T23:14:18.502Z,5.00
2022-08-26T23:16:47.474Z,4.50
2022-08-26T23:19:18.659Z,4.30
2022-08-26T23:21:47.764Z,5.30
2022-08-26T23:24:17.381Z,4.90
2022-08-26T23:26:46.014Z,5.90
2022-08-26T23:29:16.025Z,5.30
2022-08-26T23:31:45.242Z,6.10
2022-08-26T23:34:32.590Z,6.20
2022-08-26T23:37:02.467Z,5.30
2022-08-26T23:39:35.372Z,5.00
2022-08-26T23:42:04.467Z,5.30
2022-08-26T23:44:32.748Z,5.40
2022-08-26T23:47:01.819Z,4.60
2022-08-26T23:49:30.197Z,5.40
2022-08-26T23:52:17.320Z,4.70
2022-08-26T23:54:48.807Z,4.60
2022-08-26T23:57:19.854Z,4.20
2022-08-26T23:59:48.668Z,4.10
